Jyllinge, Denmark
Current Conditions -  °F | °C
As of 5:20 AM on Saturday 25 Oct 2014 (Local Time) from EKRK Reporting Station
Rain Showers Rain Showers  
Wind Chill: 43°   Ceiling: 1000
Heat Index: 48°   Visibility: 3mi
Dew Point: 46°   Wind: 13mph
Humidity: 93%   Direction: 170°S
Pressure: 30"   Gusts: NA
Location:  55.76°N, 12.11°E
Report Text: EKRK 250320Z AUTO 17011KT 5000NDV -SHRA FEW008/// BKN010///09/08 Q1016
Loading
Personal Weather Stations






























Interactive Weather Map New forecast layout! Learn more

10-Day Weather Forecast

Advertisements
Track Severe Weather on mobile